Hovedside
METAR-TAF:

METAR-TAF

Lufthavner :

Langkawi internasjonale lufthavn

Langkawi, Malaysia

breddegrad: 06-20N, lengdegrad: 099-44E, høyde over havet: 8 m

Gjeldene værobservasjon

Denne rapporten ble laget for 52 minutter siden, klokken 11:00 UTC
Vind 3 kt fra Nord-nordvest, skiftende mellom Vest-sørvest og Nordøst
Temperatur 30°C
Luftfuktighet 75%
Trykk 1007 hPa
Sikt 10 km eller mer
Få skyer i en høyde av 1700 ft, Bygeskyer.

METAR: WMKL 201100Z 33003KT 250V040 9999 FEW017CB 30/25 Q1007

Tid: 19:52 (11:52 UTC)

Varsel

Denne rapporten ble laget for 52 minutter siden, klokken 11:00 UTC
Varsel gyldig fra 20. klokken 12 UTC til 21. klokken 12 UTC
Vind 3 kt fra skiftende retning
Sikt 10 km eller mer
Få skyer i en høyde av 2600 ft
Midlertidig
fra 20. klokken 18 UTC til 21. klokken 00 UTC
Sikt: 6000 m
Få skyer i en høyde av 1000 ft
Få skyer i en høyde av 1700 ft, Bygeskyer.
torden, regn,

TAF: WMKL 201100Z 2012/2112 VRB03KT 9999 FEW026 TEMPO 2018/2100 6000 TSRA FEW010 FEW017CB

Værobservasjoner og værvarsel for over 4000 flyplasser (METAR- og TAF-rapporter).

Tilgjengelige stasjoner er representert av de røde og gule prikkene på kartet.

Hold musepekeren over prikken for å se navnet på stasjonen.

Klikk så for å se værobservasjoner og -varsler.

For å forandre kartet kan du klikke på den grønne knappen med svart kryss for å zoome inn, på den grønne knappen med strek for å zoome ut, eller på de grønne pilene for å se tilstøtende kart.


METAR-TAF: